createdAt,value
2022-08-23T00:01:36.340Z,99218.00
2022-08-23T00:04:08.144Z,99223.41
2022-08-23T00:06:38.020Z,99223.09
2022-08-23T00:09:06.509Z,99219.00
2022-08-23T00:11:47.732Z,99214.94
2022-08-23T00:14:22.581Z,99210.63
2022-08-23T00:16:50.462Z,99210.19
2022-08-23T00:19:19.931Z,99203.84
2022-08-23T00:21:48.625Z,99203.44
2022-08-23T00:24:17.184Z,99208.22
2022-08-23T00:26:59.270Z,99209.81
2022-08-23T00:29:33.502Z,99200.84
2022-08-23T00:32:01.808Z,99208.84
2022-08-23T00:34:29.467Z,99215.91
2022-08-23T00:36:57.494Z,99203.66
2022-08-23T00:39:25.632Z,99210.50
2022-08-23T00:41:57.975Z,99210.94
2022-08-23T00:44:49.294Z,99219.06
2022-08-23T00:47:35.890Z,99221.25
2022-08-23T00:50:33.192Z,99222.50
2022-08-23T00:53:25.374Z,99221.78
2022-08-23T00:55:57.577Z,99229.72
2022-08-23T00:58:26.197Z,99222.53
2022-08-23T01:00:55.982Z,99232.44
2022-08-23T01:03:25.419Z,99230.59
2022-08-23T01:06:14.772Z,99240.41
2022-08-23T01:08:46.071Z,99225.81
2022-08-23T01:11:38.038Z,99233.22
2022-08-23T01:14:15.826Z,99240.53
2022-08-23T01:16:54.376Z,99242.81
2022-08-23T01:19:31.624Z,99242.44
2022-08-23T01:22:13.591Z,99241.91
2022-08-23T01:25:06.265Z,99241.00
2022-08-23T01:27:31.535Z,99245.22
2022-08-23T01:30:00.669Z,99243.66
2022-08-23T01:32:32.489Z,99247.97
2022-08-23T01:35:00.381Z,99253.56
2022-08-23T01:37:28.310Z,99251.81
2022-08-23T01:39:58.979Z,99261.16
2022-08-23T01:42:29.011Z,99255.31
2022-08-23T01:44:56.899Z,99249.81
2022-08-23T01:47:25.024Z,99254.03
2022-08-23T01:49:53.099Z,99257.59
2022-08-23T01:52:21.393Z,99256.09
2022-08-23T01:54:49.282Z,99255.81
2022-08-23T01:57:17.724Z,99262.75
2022-08-23T01:59:48.479Z,99256.66
2022-08-23T02:02:17.060Z,99259.97
2022-08-23T02:04:44.952Z,99262.25
2022-08-23T02:07:12.513Z,99261.66
2022-08-23T02:09:40.365Z,99260.38
2022-08-23T02:12:17.347Z,99267.28
2022-08-23T02:14:45.581Z,99266.78
2022-08-23T02:17:17.883Z,99262.75
2022-08-23T02:19:45.622Z,99269.91
2022-08-23T02:22:13.285Z,99268.22
2022-08-23T02:24:46.892Z,99269.78
2022-08-23T02:27:16.004Z,99276.16
2022-08-23T02:29:45.500Z,99283.75
2022-08-23T02:32:15.753Z,99281.94
2022-08-23T02:35:04.639Z,99283.22
2022-08-23T02:37:34.500Z,99279.44
2022-08-23T02:40:03.982Z,99276.78
2022-08-23T02:42:31.730Z,99282.25
2022-08-23T02:45:02.579Z,99285.50
2022-08-23T02:47:35.244Z,99288.28
2022-08-23T02:50:09.264Z,99292.59
2022-08-23T02:52:36.720Z,99292.84
2022-08-23T02:55:05.394Z,99289.66
2022-08-23T02:57:35.191Z,99292.28
2022-08-23T03:00:03.718Z,99299.78
2022-08-23T03:02:32.711Z,99303.25
2022-08-23T03:05:00.685Z,99306.28
2022-08-23T03:07:31.412Z,99310.66
2022-08-23T03:10:04.953Z,99307.19
2022-08-23T03:12:38.527Z,99305.09
2022-08-23T03:15:07.498Z,99306.44
2022-08-23T03:17:35.828Z,99307.34
2022-08-23T03:20:04.775Z,99314.72
2022-08-23T03:22:36.301Z,99308.47
2022-08-23T03:25:06.902Z,99313.41
2022-08-23T03:27:35.824Z,99318.47
2022-08-23T03:30:17.953Z,99321.69
2022-08-23T03:32:49.520Z,99320.28
2022-08-23T03:35:17.499Z,99320.03
2022-08-23T03:37:45.313Z,99324.88
2022-08-23T03:40:14.071Z,99330.28
2022-08-23T03:42:41.564Z,99330.87
2022-08-23T03:45:09.553Z,99328.84
2022-08-23T03:47:37.393Z,99323.00
2022-08-23T03:50:05.847Z,99329.97
2022-08-23T03:52:34.214Z,99342.56
2022-08-23T03:55:02.141Z,99338.22
2022-08-23T03:57:34.152Z,99332.53
2022-08-23T04:00:02.263Z,99334.09
2022-08-23T04:02:36.158Z,99341.41
2022-08-23T04:05:11.431Z,99340.59
2022-08-23T04:07:40.963Z,99349.31
2022-08-23T04:10:12.848Z,99350.16
2022-08-23T04:12:41.338Z,99356.62
2022-08-23T04:15:14.371Z,99356.59
2022-08-23T04:17:43.010Z,99360.59
2022-08-23T04:20:11.255Z,99354.59
2022-08-23T04:22:39.190Z,99362.53
2022-08-23T04:25:10.118Z,99356.31
2022-08-23T04:27:55.270Z,99349.59
2022-08-23T04:30:23.215Z,99359.16
2022-08-23T04:32:51.592Z,99354.09
2022-08-23T04:35:19.379Z,99353.78
2022-08-23T04:37:47.355Z,99352.63
2022-08-23T04:40:40.371Z,99349.91
2022-08-23T04:43:18.661Z,99348.56
2022-08-23T04:45:57.577Z,99353.59
2022-08-23T04:48:25.973Z,99350.91
2022-08-23T04:50:53.598Z,99360.06
2022-08-23T04:53:21.305Z,99364.53
2022-08-23T04:55:52.567Z,99359.69
2022-08-23T04:58:20.616Z,99362.69
2022-08-23T05:00:53.027Z,99363.63
2022-08-23T05:03:23.682Z,99365.28
2022-08-23T05:05:54.043Z,99366.59
2022-08-23T05:08:22.474Z,99369.91
2022-08-23T05:10:50.319Z,99375.81
2022-08-23T05:13:18.151Z,99386.19
2022-08-23T05:15:51.167Z,99391.59
2022-08-23T05:18:29.443Z,99389.03
2022-08-23T05:20:57.666Z,99389.34
2022-08-23T05:23:31.994Z,99386.25
2022-08-23T05:26:01.998Z,99392.81
2022-08-23T05:28:34.966Z,99387.31
2022-08-23T05:31:11.501Z,99393.72
2022-08-23T05:33:41.146Z,99398.13
2022-08-23T05:36:12.803Z,99392.19
2022-08-23T05:38:41.372Z,99397.00
2022-08-23T05:41:10.331Z,99402.16
2022-08-23T05:43:42.810Z,99402.06
2022-08-23T05:46:16.148Z,99408.91
2022-08-23T05:48:51.031Z,99412.75
2022-08-23T05:51:18.947Z,99407.50
2022-08-23T05:53:47.694Z,99418.09
2022-08-23T05:56:23.788Z,99422.75
2022-08-23T05:58:56.624Z,99436.34
2022-08-23T06:01:29.159Z,99429.25
2022-08-23T06:04:01.452Z,99433.62
2022-08-23T06:06:36.388Z,99436.63
2022-08-23T06:09:08.324Z,99441.56
2022-08-23T06:11:36.736Z,99437.81
2022-08-23T06:14:15.630Z,99438.19
2022-08-23T06:16:51.694Z,99443.06
2022-08-23T06:19:24.135Z,99444.59
2022-08-23T06:21:55.886Z,99444.75
2022-08-23T06:24:23.988Z,99449.09
2022-08-23T06:26:51.993Z,99446.09
2022-08-23T06:29:20.269Z,99455.78
2022-08-23T06:31:50.835Z,99453.75
2022-08-23T06:34:33.755Z,99457.59
2022-08-23T06:37:06.130Z,99464.31
2022-08-23T06:39:37.653Z,99458.75
2022-08-23T06:42:22.228Z,99465.81
2022-08-23T06:45:00.900Z,99465.41
2022-08-23T06:47:29.325Z,99467.72
2022-08-23T06:49:58.566Z,99468.78
2022-08-23T06:52:29.793Z,99469.34
2022-08-23T06:54:58.652Z,99469.47
2022-08-23T06:57:26.570Z,99475.37
2022-08-23T06:59:56.064Z,99477.81
2022-08-23T07:02:24.895Z,99481.91
2022-08-23T07:04:58.915Z,99485.41
2022-08-23T07:07:37.551Z,99482.91
2022-08-23T07:14:10.935Z,99486.25
2022-08-23T07:16:44.698Z,99487.03
2022-08-23T07:19:14.966Z,99495.44
2022-08-23T07:21:43.829Z,99487.41
2022-08-23T07:24:13.835Z,99499.84
2022-08-23T07:26:42.766Z,99492.41
2022-08-23T07:29:11.754Z,99491.16
2022-08-23T07:31:43.671Z,99498.97
2022-08-23T07:34:11.900Z,99489.53
2022-08-23T07:36:41.486Z,99493.44
2022-08-23T07:39:09.962Z,99494.44
2022-08-23T07:41:38.870Z,99492.66
2022-08-23T07:44:08.914Z,99487.22
2022-08-23T07:46:39.800Z,99495.44
2022-08-23T07:49:11.273Z,99503.88
2022-08-23T07:51:40.304Z,99504.47
2022-08-23T08:00:43.535Z,99512.97
2022-08-23T08:03:13.754Z,99514.03
2022-08-23T08:05:42.037Z,99510.38
2022-08-23T08:08:10.196Z,99513.91
2022-08-23T08:10:43.946Z,99509.66
2022-08-23T08:13:11.561Z,99516.88
2022-08-23T08:15:45.819Z,99507.16
2022-08-23T08:18:25.872Z,99502.19
2022-08-23T08:20:59.494Z,99506.37
2022-08-23T08:23:30.495Z,99509.41
2022-08-23T08:26:06.639Z,99506.37
2022-08-23T08:28:36.918Z,99507.75
2022-08-23T08:31:07.247Z,99512.44
2022-08-23T08:33:35.435Z,99517.12
2022-08-23T08:36:04.944Z,99519.75
2022-08-23T08:38:48.506Z,99522.38
2022-08-23T08:41:26.640Z,99530.91
2022-08-23T08:44:11.947Z,99522.56
2022-08-23T08:46:49.405Z,99534.31
2022-08-23T08:49:58.387Z,99536.47
2022-08-23T08:52:49.885Z,99536.22
2022-08-23T08:55:34.956Z,99547.78
2022-08-23T08:58:09.132Z,99536.44
2022-08-23T09:00:41.474Z,99545.19
2022-08-23T09:03:15.242Z,99538.84
2022-08-23T09:05:50.601Z,99545.78
2022-08-23T09:08:35.220Z,99543.06
2022-08-23T09:11:15.997Z,99540.00
2022-08-23T09:13:53.902Z,99540.66
2022-08-23T09:16:54.867Z,99545.94
2022-08-23T09:19:25.823Z,99545.94
2022-08-23T09:22:04.433Z,99552.72
2022-08-23T09:24:42.239Z,99543.78
2022-08-23T09:27:18.389Z,99545.78
2022-08-23T09:30:05.442Z,99546.50
2022-08-23T09:32:44.118Z,99543.87
2022-08-23T09:35:17.721Z,99543.09
2022-08-23T09:38:20.141Z,99555.91
2022-08-23T09:40:51.427Z,99554.34
2022-08-23T09:43:28.271Z,99551.75
2022-08-23T09:46:01.973Z,99552.94
2022-08-23T09:48:49.253Z,99558.13
2022-08-23T09:51:32.624Z,99560.59
2022-08-23T09:54:23.714Z,99552.84
2022-08-23T09:57:02.909Z,99554.22
2022-08-23T09:59:45.631Z,99551.09
2022-08-23T10:02:38.307Z,99550.00
2022-08-23T10:05:20.824Z,99544.97
2022-08-23T10:08:00.995Z,99549.81
2022-08-23T10:10:38.936Z,99546.22
2022-08-23T10:13:07.802Z,99541.03
2022-08-23T10:16:06.794Z,99540.91
2022-08-23T10:18:51.492Z,99544.28
2022-08-23T10:21:42.692Z,99544.03
2022-08-23T10:24:43.778Z,99545.09
2022-08-23T10:27:38.981Z,99546.75
2022-08-23T10:30:12.822Z,99547.50
2022-08-23T10:33:01.122Z,99550.94
2022-08-23T10:35:51.731Z,99553.34
2022-08-23T10:38:40.393Z,99545.41
2022-08-23T10:41:22.424Z,99543.84
2022-08-23T10:43:53.967Z,99538.19
2022-08-23T10:46:26.174Z,99545.84
2022-08-23T10:48:58.162Z,99555.94
2022-08-23T10:51:32.389Z,99550.34
2022-08-23T10:54:12.906Z,99546.22
2022-08-23T10:56:50.856Z,99552.72
2022-08-23T10:59:26.321Z,99548.31
2022-08-23T11:02:38.322Z,99554.00
2022-08-23T11:05:31.264Z,99546.94
2022-08-23T11:08:08.652Z,99553.47
2022-08-23T11:10:56.192Z,99543.97
2022-08-23T11:13:30.090Z,99545.47
2022-08-23T11:16:13.059Z,99545.16
2022-08-23T11:18:49.230Z,99550.63
2022-08-23T11:21:19.593Z,99548.59
2022-08-23T11:23:59.059Z,99549.22
2022-08-23T11:26:30.225Z,99552.53
2022-08-23T11:29:11.023Z,99545.09
2022-08-23T11:31:50.853Z,99542.28
2022-08-23T11:34:29.373Z,99546.28
2022-08-23T11:37:26.384Z,99542.13
2022-08-23T11:39:59.003Z,99538.31
2022-08-23T11:42:44.321Z,99538.31
2022-08-23T11:45:27.635Z,99546.09
2022-08-23T11:48:13.733Z,99535.34
2022-08-23T11:51:27.567Z,99551.28
2022-08-23T11:54:13.480Z,99548.75
2022-08-23T11:56:58.542Z,99551.47
2022-08-23T12:00:07.161Z,99550.19
2022-08-23T12:02:38.933Z,99547.06
2022-08-23T12:05:18.153Z,99548.78
2022-08-23T12:07:54.035Z,99543.06
2022-08-23T12:10:42.223Z,99544.59
2022-08-23T12:13:18.840Z,99553.66
2022-08-23T12:16:05.526Z,99552.47
2022-08-23T12:18:47.630Z,99543.41
2022-08-23T12:21:27.781Z,99539.50
2022-08-23T12:24:02.851Z,99541.84
2022-08-23T12:26:43.565Z,99539.91
2022-08-23T12:29:41.858Z,99545.91
2022-08-23T12:32:48.598Z,99550.56
2022-08-23T12:35:40.825Z,99548.03
2022-08-23T12:38:18.687Z,99542.28
2022-08-23T12:40:50.714Z,99546.19
2022-08-23T12:43:26.984Z,99543.53
2022-08-23T12:46:01.242Z,99544.97
2022-08-23T12:48:33.748Z,99548.97
2022-08-23T12:51:03.291Z,99547.22
2022-08-23T12:53:45.359Z,99550.09
2022-08-23T12:56:22.818Z,99552.13
2022-08-23T12:59:05.109Z,99555.94
2022-08-23T13:01:35.806Z,99551.69
2022-08-23T13:04:11.189Z,99554.13
2022-08-23T13:06:51.309Z,99556.66
2022-08-23T13:09:27.354Z,99555.31
2022-08-23T13:11:58.084Z,99553.16
2022-08-23T13:14:31.176Z,99559.56
2022-08-23T13:17:26.020Z,99555.50
2022-08-23T13:19:59.162Z,99561.94
2022-08-23T13:22:27.396Z,99565.19
2022-08-23T13:25:28.020Z,99559.03
2022-08-23T13:27:56.261Z,99557.50
2022-08-23T13:30:27.392Z,99561.53
2022-08-23T13:33:04.222Z,99555.62
2022-08-23T13:35:43.276Z,99559.66
2022-08-23T13:38:21.222Z,99553.03
2022-08-23T13:41:35.597Z,99556.59
2022-08-23T13:44:16.953Z,99555.66
2022-08-23T13:46:48.180Z,99549.84
2022-08-23T13:49:26.334Z,99553.16
2022-08-23T13:52:32.987Z,99557.25
2022-08-23T13:54:50.927Z,99545.88
2022-08-23T13:57:22.487Z,99549.94
2022-08-23T13:59:54.009Z,99555.44
2022-08-23T14:02:24.249Z,99553.41
2022-08-23T14:04:52.321Z,99558.66
2022-08-23T14:07:20.727Z,99544.16
2022-08-23T14:09:52.012Z,99547.16
2022-08-23T14:12:25.400Z,99539.84
2022-08-23T14:14:56.743Z,99549.97
2022-08-23T14:17:25.317Z,99543.97
2022-08-23T14:22:41.041Z,99542.81
2022-08-23T14:25:10.095Z,99547.28
2022-08-23T14:27:40.114Z,99549.59
2022-08-23T14:30:13.240Z,99549.78
2022-08-23T14:32:45.831Z,99553.47
2022-08-23T14:35:16.874Z,99543.25
2022-08-23T14:38:03.775Z,99549.06
2022-08-23T14:40:33.740Z,99549.09
2022-08-23T14:43:03.869Z,99553.81
2022-08-23T14:45:32.969Z,99550.22
2022-08-23T14:48:03.454Z,99546.59
2022-08-23T14:50:37.909Z,99533.50
2022-08-23T14:53:11.833Z,99536.13
2022-08-23T14:56:02.426Z,99535.25
2022-08-23T14:58:46.070Z,99539.72
2022-08-23T15:01:20.243Z,99533.63
2022-08-23T15:03:51.412Z,99530.66
2022-08-23T15:06:21.186Z,99543.69
2022-08-23T15:08:53.536Z,99543.09
2022-08-23T15:14:12.456Z,99526.66
2022-08-23T15:16:40.327Z,99536.41
2022-08-23T15:19:10.434Z,99537.06
2022-08-23T15:21:38.569Z,99533.12
2022-08-23T15:24:07.058Z,99527.53
2022-08-23T15:26:35.167Z,99524.38
2022-08-23T15:29:03.393Z,99528.34
2022-08-23T15:31:31.298Z,99524.25
2022-08-23T15:34:01.032Z,99531.19
2022-08-23T15:36:35.315Z,99530.81
2022-08-23T15:39:03.073Z,99532.72
2022-08-23T15:41:32.035Z,99535.69
2022-08-23T15:43:59.814Z,99531.66
2022-08-23T15:46:27.638Z,99533.97
2022-08-23T15:49:04.715Z,99531.06
2022-08-23T15:51:35.431Z,99537.78
2022-08-23T15:54:05.505Z,99536.31
2022-08-23T15:56:43.955Z,99541.69
2022-08-23T15:59:19.402Z,99545.41
2022-08-23T16:01:48.825Z,99543.56
2022-08-23T16:04:18.209Z,99546.72
2022-08-23T16:06:46.591Z,99552.41
2022-08-23T16:09:24.011Z,99554.69
2022-08-23T16:11:54.329Z,99560.13
2022-08-23T16:14:28.463Z,99556.00
2022-08-23T16:16:57.098Z,99560.19
2022-08-23T16:19:27.184Z,99557.72
2022-08-23T16:21:59.347Z,99560.28
2022-08-23T16:24:36.460Z,99560.28
2022-08-23T16:27:08.864Z,99566.72
2022-08-23T16:29:39.515Z,99561.41
2022-08-23T16:32:08.431Z,99566.72
2022-08-23T16:34:36.221Z,99560.56
2022-08-23T16:37:08.112Z,99557.97
2022-08-23T16:39:37.589Z,99561.16
2022-08-23T16:42:11.122Z,99558.59
2022-08-23T16:44:39.459Z,99550.75
2022-08-23T16:47:10.636Z,99557.88
2022-08-23T16:49:39.161Z,99551.47
2022-08-23T16:52:08.223Z,99552.84
2022-08-23T16:54:36.754Z,99548.28
2022-08-23T16:57:04.780Z,99548.12
2022-08-23T16:59:36.175Z,99551.87
2022-08-23T17:02:11.397Z,99548.06
2022-08-23T17:04:42.966Z,99552.41
2022-08-23T17:07:10.709Z,99562.78
2022-08-23T17:09:38.474Z,99563.75
2022-08-23T17:12:07.028Z,99566.69
2022-08-23T17:14:34.587Z,99571.16
2022-08-23T17:17:03.811Z,99574.03
2022-08-23T17:19:31.726Z,99580.63
2022-08-23T17:22:00.150Z,99574.53
2022-08-23T17:24:27.960Z,99578.31
2022-08-23T17:26:56.796Z,99577.66
2022-08-23T17:29:24.688Z,99587.63
2022-08-23T17:31:52.407Z,99595.13
2022-08-23T17:34:21.206Z,99589.41
2022-08-23T17:36:52.378Z,99603.03
2022-08-23T17:39:32.232Z,99604.72
2022-08-23T17:42:04.001Z,99617.19
2022-08-23T17:44:36.897Z,99614.81
2022-08-23T17:47:07.705Z,99626.66
2022-08-23T17:49:36.972Z,99623.03
2022-08-23T17:52:15.517Z,99630.25
2022-08-23T17:54:43.579Z,99624.19
2022-08-23T17:57:11.721Z,99631.97
2022-08-23T17:59:41.751Z,99637.69
2022-08-23T18:02:09.702Z,99641.69
2022-08-23T18:04:38.941Z,99644.03
2022-08-23T18:07:08.249Z,99636.06
2022-08-23T18:09:46.497Z,99642.50
2022-08-23T18:12:17.294Z,99648.03
2022-08-23T18:14:52.640Z,99659.53
2022-08-23T18:17:22.581Z,99661.34
2022-08-23T18:19:51.242Z,99667.88
2022-08-23T18:22:24.453Z,99672.19
2022-08-23T18:24:53.323Z,99674.97
2022-08-23T18:27:43.049Z,99692.22
2022-08-23T18:30:16.828Z,99693.59
2022-08-23T18:32:51.755Z,99695.28
2022-08-23T18:35:23.168Z,99696.28
2022-08-23T18:37:53.081Z,99701.94
2022-08-23T18:40:21.725Z,99701.34
2022-08-23T18:42:54.563Z,99709.38
2022-08-23T18:45:32.105Z,99702.41
2022-08-23T18:48:00.450Z,99706.72
2022-08-23T18:50:41.707Z,99706.06
2022-08-23T18:53:20.065Z,99706.88
2022-08-23T18:55:50.461Z,99709.13
2022-08-23T18:58:20.223Z,99702.09
2022-08-23T19:00:50.909Z,99697.75
2022-08-23T19:03:19.740Z,99702.91
2022-08-23T19:05:50.531Z,99705.00
2022-08-23T19:08:21.946Z,99703.87
2022-08-23T19:10:49.917Z,99691.66
2022-08-23T19:13:18.416Z,99691.00
2022-08-23T19:15:53.284Z,99692.06
2022-08-23T19:18:21.733Z,99684.81
2022-08-23T19:20:50.100Z,99697.09
2022-08-23T19:23:26.202Z,99688.13
2022-08-23T19:25:59.454Z,99690.00
2022-08-23T19:28:28.316Z,99693.09
2022-08-23T19:30:56.979Z,99688.94
2022-08-23T19:33:25.746Z,99691.75
2022-08-23T19:35:54.125Z,99693.53
2022-08-23T19:38:29.735Z,99701.00
2022-08-23T19:40:58.660Z,99702.16
2022-08-23T19:43:27.366Z,99716.78
2022-08-23T19:45:59.902Z,99719.34
2022-08-23T19:48:28.559Z,99719.91
2022-08-23T19:50:56.519Z,99718.03
2022-08-23T19:53:24.652Z,99717.94
2022-08-23T19:55:53.137Z,99721.00
2022-08-23T19:58:31.143Z,99710.69
2022-08-23T20:01:05.335Z,99717.66
2022-08-23T20:03:33.894Z,99712.41
2022-08-23T20:06:02.914Z,99715.59
2022-08-23T20:08:32.766Z,99714.91
2022-08-23T20:11:01.784Z,99712.94
2022-08-23T20:13:30.520Z,99711.56
2022-08-23T20:15:58.673Z,99709.91
2022-08-23T20:18:30.212Z,99711.91
2022-08-23T20:21:05.189Z,99721.22
2022-08-23T20:23:51.958Z,99717.63
2022-08-23T20:26:22.779Z,99712.47
2022-08-23T20:28:59.639Z,99712.84
2022-08-23T20:31:35.799Z,99713.09
2022-08-23T20:34:05.432Z,99716.44
2022-08-23T20:36:33.674Z,99712.72
2022-08-23T20:39:02.189Z,99716.53
2022-08-23T20:41:39.474Z,99716.53
2022-08-23T20:44:08.807Z,99717.66
2022-08-23T20:46:39.777Z,99714.22
2022-08-23T20:49:13.003Z,99714.34
2022-08-23T20:51:41.410Z,99711.09
2022-08-23T20:54:10.084Z,99706.94
2022-08-23T20:56:39.182Z,99700.84
2022-08-23T20:59:14.773Z,99703.78
2022-08-23T21:01:44.725Z,99706.66
2022-08-23T21:04:13.230Z,99707.47
2022-08-23T21:06:51.686Z,99710.41
2022-08-23T21:09:29.370Z,99713.13
2022-08-23T21:11:58.223Z,99712.22
2022-08-23T21:14:26.144Z,99708.78
2022-08-23T21:16:56.613Z,99704.84
2022-08-23T21:19:30.379Z,99703.91
2022-08-23T21:21:58.637Z,99703.66
2022-08-23T21:24:26.478Z,99708.09
2022-08-23T21:26:54.185Z,99702.13
2022-08-23T21:29:22.213Z,99706.22
2022-08-23T21:31:49.800Z,99703.28
2022-08-23T21:34:19.918Z,99698.75
2022-08-23T21:36:47.911Z,99693.69
2022-08-23T21:39:15.850Z,99697.47
2022-08-23T21:41:49.304Z,99692.72
2022-08-23T21:44:20.365Z,99695.22
2022-08-23T21:46:50.771Z,99694.88
2022-08-23T21:49:24.239Z,99692.66
2022-08-23T21:51:56.037Z,99701.78
2022-08-23T21:54:24.677Z,99695.22
2022-08-23T21:56:55.945Z,99700.97
2022-08-23T21:59:26.895Z,99701.50
2022-08-23T22:01:54.818Z,99701.00
2022-08-23T22:04:23.398Z,99702.13
2022-08-23T22:06:51.000Z,99702.41
2022-08-23T22:09:25.691Z,99704.84
2022-08-23T22:12:00.380Z,99698.41
2022-08-23T22:14:31.377Z,99690.94
2022-08-23T22:17:00.756Z,99685.38
2022-08-23T22:19:29.370Z,99686.78
2022-08-23T22:21:57.262Z,99688.84
2022-08-23T22:24:26.334Z,99693.75
2022-08-23T22:26:55.550Z,99686.25
2022-08-23T22:29:23.717Z,99683.06
2022-08-23T22:31:51.969Z,99677.31
2022-08-23T22:34:25.732Z,99679.50
2022-08-23T22:36:55.848Z,99670.66
2022-08-23T22:39:24.046Z,99659.41
2022-08-23T22:41:53.792Z,99662.25
2022-08-23T22:44:22.531Z,99657.28
2022-08-23T22:46:51.967Z,99651.66
2022-08-23T22:49:20.193Z,99648.34
2022-08-23T22:51:52.074Z,99642.44
2022-08-23T22:54:25.318Z,99636.59
2022-08-23T22:56:56.513Z,99630.00
2022-08-23T22:59:27.647Z,99617.78
2022-08-23T23:02:03.513Z,99623.47
2022-08-23T23:04:32.933Z,99619.56
2022-08-23T23:07:01.400Z,99616.31
2022-08-23T23:09:29.305Z,99616.62
2022-08-23T23:11:57.561Z,99619.47
2022-08-23T23:14:28.979Z,99623.09
2022-08-23T23:16:57.103Z,99612.94
2022-08-23T23:19:47.293Z,99618.16
2022-08-23T23:22:15.567Z,99626.72
2022-08-23T23:24:45.674Z,99625.97
2022-08-23T23:27:16.599Z,99623.06
2022-08-23T23:29:44.746Z,99632.03
2022-08-23T23:32:12.296Z,99631.53
2022-08-23T23:34:40.371Z,99633.75
2022-08-23T23:37:08.538Z,99636.19
2022-08-23T23:39:36.369Z,99634.03
2022-08-23T23:42:04.221Z,99635.87
2022-08-23T23:44:32.371Z,99638.75
2022-08-23T23:47:01.964Z,99637.13
2022-08-23T23:49:33.800Z,99635.87
2022-08-23T23:52:04.932Z,99631.00
2022-08-23T23:54:34.105Z,99631.53
2022-08-23T23:57:03.067Z,99635.06
2022-08-23T23:59:31.590Z,99642.34
